AirNav   ProFlight Series 2 Aviation Headset
 
 1002 users online  

57GA Blue Ridge Skyport Airport
Blue Ridge, Georgia, USA

GOING TO BLUE RIDGE?


FAA INFORMATION EFFECTIVE 16 JULY 2020

Location

FAA Identifier: 57GA
Lat/Long: 34-51-27.6100N 084-22-58.8400W
34-51.460167N 084-22.980667W
34.8576694,-84.3830111
(estimated)
Elevation: 1946 ft. / 593 m (estimated)
Variation: 04W (2000)
From city: 3 miles W of BLUE RIDGE, GA
Time zone: UTC -4 (UTC -5 during Standard Time)
Zip code: 30513

Airport Operations

Airport use: Private use. Permission required prior to landing
Activation date: 09/2002
Control tower: no
ARTCC: ATLANTA CENTER
FSS: MACON FLIGHT SERVICE STATION
Attendance: UNATNDD
Wind indicator: yes
Segmented circle: no

Airport Communications

WX AWOS-3 at 49A (15 nm SW): 118.075 (706 276-4513)
WX AWOS-3 at DZJ (19 nm E): 119.325 (706-745-9271)

Nearby radio navigation aids

VOR radial/distance  VOR name  Freq  Var
HRSr257/23.6HARRIS VORTAC109.8000E
GQOr098/38.4CHOO CHOO VORTAC115.8001E

 
NDB name  Hdg/Dist  Freq  Var  ID
MC MINN COUNTY168/33.424203WMMI -- -- ..
CHERO013/36.741505WDJD -.. .--- -..

Airport Services

Runway Information

Runway 18/36

Dimensions: 3100 x 30 ft. / 945 x 9 m
Surface: asphalt
RUNWAY 18  RUNWAY 36
Traffic pattern: leftleft
Obstructions: 30 ft. trees, 100 ft. from runwaynone

Airport Ownership and Management from official FAA records

Ownership: Privately-owned
Owner: JAMES F CLACK
345 HORSE POINTE
BLUE RIDGE, GA 30228
Phone 706-455-7427
Manager: JAMES F CLACK
526 RED BUSH SCHOOL ROAD
BLUE RIDGE, GA 30228
Phone 706-258-2060

Airport Operational Statistics

Aircraft based on the field: 6
Single engine airplanes: 5
Ultralights: 1
    

Additional Remarks

FOR CD CTC ATLANTA ARTCC AT 770-210-7692.

Instrument Procedures

There are no published instrument procedures at 57GA.

Some nearby airports with instrument procedures:

1A3 - Martin Campbell Field Airport (10 nm N)
49A - Gilmer County Airport (15 nm SW)
KDZJ - Blairsville Airport (19 nm E)
KJZP - Pickens County Airport (25 nm S)
KDNN - Dalton Municipal Airport (25 nm W)
 
Loc | Ops | Rwys | IFR | FBO | Links
Com | Nav | Svcs | Stats | Notes
Area around 57GA (Blue Ridge Skyport Airport)
 
Road maps at: MapQuest Bing Google
 
Aerial photo
WARNING: Photo may not be current or correct
Aerial photo of 57GA (Blue Ridge Skyport Airport)
Photo by Ed Benson ("Fast Eddie B.")
Photo taken 27-Oct-2005
looking southwest

Do you have a better or more recent aerial photo of Blue Ridge Skyport Airport that you would like to share? If so, please send us your photo.

 
Sectional chart

 
Airport distance calculator
Flying to Blue Ridge Skyport Airport? Find the distance to fly.

From to 57GA

Sunrise and sunset
Times for 09-Aug-2020
 Local
(UTC-4)
 Zulu
(UTC)
Morning civil twilight06:2810:28
Sunrise06:5510:55
Sunset20:3100:31
Evening civil twilight20:5800:58

Current date and time
Zulu (UTC)  09-Aug-2020 13:56:35
Local (UTC-4)  09-Aug-2020 09:56:35
 
METAR
K49A 
15nm SW 
091335Z AUTO 00000KT 10SM CLR 25/20 A3025 RMK AO2 T02500202 TSNO
KDZJ 
19nm E 
091335Z AUTO 00000KT 10SM SCT002 21/20 A3026 RMK AO2 T02050202
KJZP 
25nm S 
091335Z AUTO 00000KT 10SM CLR 25/21 A3025 RMK AO2 T02480210
KRZR 
29nm NW 
091335Z AUTO 00000KT 9SM CLR 25/23 A3017 RMK A01
TAF
KCHA 
42nm W 
091120Z 0912/1012 VRB03KT P6SM SCT250 FM091700 30005KT P6SM FEW050 SCT250
NOTAMs
Click for the latest NOTAMs
NOTAMs are issued by the DoD/FAA and will open in a separate window not controlled by AirNav.

 

 
 

Would you like to see your business listed on this page?

 If your business provides an interesting product or service to pilots, flight crews, aircraft, or users of the Blue Ridge Skyport Airport, you should consider listing it here.  To start the listing process, click on the button below
 
Add a business
 

Other Pages about Blue Ridge Skyport Airport

Update a link
 
Copyright © AirNav, LLC. All rights reserved. Privacy Policy  Contact